Time;durP1;ratioP1;P1;durP2;ratioP2;P2;SDS_P1;SDS_P2;PMS_P1;PMS_P2;Temp;Humidity;BMP_temperature;BMP_pressure;BME280_temperature;BME280_humidity;BME280_pressure;Samples;Min_cycle;Max_cycle;Signal;HPM_P1;HPM_P2
2022/07/22 00:00:15;;;;;;;4.77;4.27;;;22.00;72.20;23.20;101280.00;;;;5068851;28;20205;-42
2022/07/22 00:02:41;;;;;;;7.80;5.20;;;22.20;71.50;23.30;101278.00;;;;5068557;28;20331;-41
2022/07/22 00:05:08;;;;;;;6.43;4.90;;;22.30;70.90;23.20;101280.00;;;;5068346;28;20639;-41
2022/07/22 00:07:33;;;;;;;5.63;4.17;;;22.00;71.50;23.20;101284.00;;;;5068293;28;20185;-42
2022/07/22 00:09:59;;;;;;;7.93;4.67;;;22.20;71.20;23.30;101267.00;;;;5068128;28;20190;-41
2022/07/22 00:12:25;;;;;;;5.70;4.30;;;22.20;70.80;23.30;101280.00;;;;5068268;28;20238;-41
2022/07/22 00:14:51;;;;;;;5.63;4.70;;;22.10;70.90;23.20;101288.00;;;;5068106;28;20178;-40
2022/07/22 00:17:16;;;;;;;4.63;4.17;;;22.10;71.20;23.20;101282.00;;;;5068171;28;20198;-40
2022/07/22 00:19:42;;;;;;;4.73;4.23;;;21.80;72.10;23.10;101279.00;;;;5068260;28;20189;-41
2022/07/22 00:22:08;;;;;;;5.80;4.40;;;21.80;72.10;23.10;101277.00;;;;5068422;28;20254;-42
2022/07/22 00:24:34;;;;;;;4.33;3.37;;;21.80;72.00;23.10;101282.00;;;;5067778;28;20170;-41
2022/07/22 00:26:59;;;;;;;6.97;4.33;;;21.90;71.50;23.10;101269.00;;;;5068214;28;20211;-40
2022/07/22 00:29:25;;;;;;;5.10;3.73;;;21.80;71.80;23.00;101283.00;;;;5069303;28;20296;-41
2022/07/22 00:31:51;;;;;;;6.63;4.43;;;21.90;71.40;23.00;101275.00;;;;5068155;28;20181;-41
2022/07/22 00:34:17;;;;;;;6.57;4.00;;;21.80;71.50;23.00;101266.00;;;;5067940;28;20172;-41
2022/07/22 00:36:42;;;;;;;7.27;4.27;;;21.70;72.20;22.90;101270.00;;;;5067778;28;20189;-41
2022/07/22 00:39:08;;;;;;;4.70;3.40;;;21.60;72.50;22.90;101277.00;;;;5067737;28;20288;-41
2022/07/22 00:41:34;;;;;;;5.47;3.70;;;21.70;72.30;22.90;101269.00;;;;5069516;28;20200;-40
2022/07/22 00:44:02;;;;;;;4.97;3.23;;;21.80;71.30;23.00;101272.00;;;;5084623;28;20592;-39
2022/07/22 00:46:28;;;;;;;5.00;3.40;;;22.10;70.80;23.10;101274.00;;;;5088451;28;20162;-40
2022/07/22 00:48:54;;;;;;;5.23;3.50;;;22.10;70.20;23.10;101272.00;;;;5066922;28;20205;-41
2022/07/22 00:51:21;;;;;;;4.90;3.70;;;22.10;70.40;23.10;101262.00;;;;5049714;28;20174;-41
2022/07/22 00:53:47;;;;;;;4.97;4.23;;;22.10;70.20;23.10;101265.00;;;;5071036;28;20213;-41
2022/07/22 00:56:13;;;;;;;6.03;3.67;;;21.80;71.30;23.00;101264.00;;;;5067540;28;20638;-40
2022/07/22 00:58:39;;;;;;;5.80;3.70;;;21.80;71.30;23.00;101260.00;;;;5067065;28;20197;-42
2022/07/22 01:01:05;;;;;;;5.20;3.27;;;21.80;71.30;23.00;101264.00;;;;5067335;28;20174;-41
2022/07/22 01:03:31;;;;;;;5.83;3.37;;;21.80;71.30;23.00;101262.00;;;;5066268;28;20169;-41
2022/07/22 01:05:57;;;;;;;3.87;2.80;;;22.00;70.50;23.10;101260.00;;;;5066068;28;20165;-42
2022/07/22 01:08:23;;;;;;;5.27;3.30;;;22.20;69.80;23.20;101270.00;;;;5067135;28;20193;-41
2022/07/22 01:10:48;;;;;;;4.47;3.47;;;22.30;69.40;23.20;101272.00;;;;5067282;28;20165;-40
2022/07/22 01:13:14;;;;;;;3.40;3.00;;;22.30;69.10;23.30;101263.00;;;;5067255;28;20181;-41
2022/07/22 01:15:40;;;;;;;4.43;3.07;;;22.40;68.80;23.30;101259.00;;;;5067232;28;20400;-41
2022/07/22 01:18:05;;;;;;;5.30;3.27;;;22.50;68.60;23.40;101257.00;;;;5066783;28;20213;-40
2022/07/22 01:20:31;;;;;;;4.03;2.83;;;22.50;68.10;23.40;101263.00;;;;5068967;28;20174;-41
2022/07/22 01:22:57;;;;;;;4.70;3.17;;;22.60;68.10;23.50;101264.00;;;;5066986;28;20166;-40
2022/07/22 01:25:23;;;;;;;3.97;3.17;;;22.50;68.30;23.50;101263.00;;;;5067075;28;20186;-40
2022/07/22 01:27:49;;;;;;;2.93;2.50;;;22.60;68.50;23.50;101265.00;;;;5066730;28;20234;-41
2022/07/22 01:30:14;;;;;;;3.23;2.73;;;22.60;68.00;23.50;101265.00;;;;5067453;28;20181;-42
2022/07/22 01:32:40;;;;;;;3.00;2.70;;;22.60;67.90;23.50;101263.00;;;;5067041;28;20208;-40
2022/07/22 01:35:06;;;;;;;3.80;2.70;;;22.60;67.70;23.60;101254.00;;;;5067569;28;20477;-40
2022/07/22 01:37:33;;;;;;;3.63;3.00;;;22.70;67.70;23.60;101253.00;;;;5067495;28;20205;-41
2022/07/22 01:39:59;;;;;;;6.27;2.57;;;22.70;67.80;23.60;101261.00;;;;5067526;28;20186;-42
2022/07/22 01:42:25;;;;;;;5.53;2.80;;;22.80;67.30;23.60;101261.00;;;;5067718;28;20518;-43
2022/07/22 01:44:51;;;;;;;5.33;2.83;;;22.70;67.50;23.60;101258.00;;;;5067106;28;20753;-42
2022/07/22 01:47:17;;;;;;;5.00;2.60;;;22.70;67.90;23.60;101259.00;;;;5066099;28;20586;-42
2022/07/22 01:49:42;;;;;;;4.20;3.03;;;22.60;67.70;23.60;101260.00;;;;5066891;28;20194;-42
2022/07/22 01:52:08;;;;;;;4.77;2.50;;;22.70;68.00;23.60;101268.00;;;;5065904;28;20169;-42
2022/07/22 01:54:34;;;;;;;2.83;2.63;;;22.70;67.60;23.70;101253.00;;;;5065755;28;20174;-41
2022/07/22 01:57:01;;;;;;;4.50;2.70;;;22.70;67.10;23.70;101252.00;;;;5065937;28;20165;-41
2022/07/22 01:59:26;;;;;;;3.83;2.57;;;22.70;67.20;23.70;101255.00;;;;5066109;28;20208;-41
2022/07/22 02:01:52;;;;;;;3.13;2.83;;;22.70;67.70;23.70;101255.00;;;;5066144;28;20725;-42
2022/07/22 02:04:18;;;;;;;2.93;2.60;;;22.80;67.60;23.70;101258.00;;;;5066519;28;20173;-42
2022/07/22 02:06:43;;;;;;;2.57;2.30;;;22.70;67.20;23.70;101250.00;;;;5066161;28;20192;-40
2022/07/22 02:09:09;;;;;;;3.13;2.60;;;22.80;67.00;23.70;101247.00;;;;5065929;28;20191;-40
2022/07/22 02:11:35;;;;;;;2.60;2.40;;;22.80;67.00;23.70;101251.00;;;;5066221;28;20411;-42
2022/07/22 02:14:01;;;;;;;3.27;2.47;;;22.80;66.30;23.70;101255.00;;;;5066434;28;20682;-42
2022/07/22 02:16:27;;;;;;;2.40;2.20;;;22.80;67.30;23.60;101263.00;;;;5066003;28;20184;-41
2022/07/22 02:18:53;;;;;;;3.33;2.87;;;22.80;66.40;23.70;101244.00;;;;5065567;28;20232;-41
2022/07/22 02:21:19;;;;;;;2.80;2.53;;;22.80;67.00;23.70;101242.00;;;;5066616;28;20184;-41
2022/07/22 02:23:44;;;;;;;2.50;2.30;;;22.80;66.40;23.70;101251.00;;;;5066905;28;20162;-42
2022/07/22 02:26:10;;;;;;;2.97;2.40;;;22.80;66.30;23.70;101250.00;;;;5079165;28;20207;-41
2022/07/22 02:28:36;;;;;;;2.70;2.40;;;22.80;66.10;23.70;101241.00;;;;5086760;28;20221;-41
2022/07/22 02:31:02;;;;;;;3.20;2.50;;;22.80;66.50;23.70;101243.00;;;;5067622;28;20174;-42
2022/07/22 02:33:29;;;;;;;2.57;2.30;;;22.80;66.50;23.70;101240.00;;;;5065799;28;20653;-41
2022/07/22 02:35:55;;;;;;;3.30;3.00;;;22.80;66.00;23.70;101245.00;;;;5066056;28;20177;-40
2022/07/22 02:38:21;;;;;;;2.70;2.20;;;22.80;66.70;23.70;101237.00;;;;5063933;28;20280;-42
2022/07/22 02:40:47;;;;;;;3.60;2.90;;;22.80;65.70;23.70;101243.00;;;;5065602;28;20358;-41
2022/07/22 02:43:13;;;;;;;3.73;3.23;;;22.80;66.60;23.70;101232.00;;;;5067547;28;20170;-41
2022/07/22 02:45:38;;;;;;;5.43;2.47;;;22.80;66.60;23.70;101244.00;;;;5067913;28;20212;-41
2022/07/22 02:48:04;;;;;;;3.10;2.50;;;22.80;66.00;23.70;101241.00;;;;5065457;28;20442;-43
2022/07/22 02:50:32;;;;;;;4.43;3.10;;;22.80;66.20;23.70;101241.00;;;;5066453;28;20169;-41
2022/07/22 02:52:58;;;;;;;4.00;3.40;;;22.80;66.70;23.70;101241.00;;;;5065976;28;20209;-42
2022/07/22 02:55:24;;;;;;;4.53;3.87;;;22.90;66.60;23.70;101245.00;;;;5065506;28;20181;-41
2022/07/22 02:57:49;;;;;;;3.43;2.80;;;22.80;67.00;23.70;101251.00;;;;5065738;28;20197;-41
2022/07/22 03:00:15;;;;;;;2.60;2.33;;;22.70;66.60;23.70;101247.00;;;;5065784;28;20166;-42
2022/07/22 03:03:50;;;;;;;2.73;2.33;;;22.70;66.10;23.70;101245.00;;;;5065483;28;20197;-41
2022/07/22 03:06:15;;;;;;;4.20;3.80;;;22.70;65.80;23.70;101253.00;;;;5067594;28;20623;-41
2022/07/22 03:08:41;;;;;;;3.70;3.30;;;22.70;66.50;23.70;101245.00;;;;5069365;28;20247;-42
2022/07/22 03:11:07;;;;;;;3.70;3.40;;;22.70;66.40;23.70;101255.00;;;;5069574;28;20247;-43
2022/07/22 03:13:33;;;;;;;3.07;2.40;;;22.80;66.20;23.70;101255.00;;;;5069328;28;20380;-42
2022/07/22 03:15:58;;;;;;;3.73;2.40;;;22.80;65.40;23.70;101250.00;;;;5069505;28;20252;-42
2022/07/22 03:18:24;;;;;;;2.40;2.20;;;22.80;65.30;23.70;101251.00;;;;5069359;28;20735;-41
2022/07/22 03:20:50;;;;;;;4.07;3.77;;;22.80;65.00;23.70;101257.00;;;;5069650;28;20188;-42
2022/07/22 03:23:16;;;;;;;4.90;4.00;;;22.80;66.40;23.70;101254.00;;;;5069417;28;20195;-42
2022/07/22 03:25:41;;;;;;;3.80;3.20;;;22.80;66.40;23.70;101249.00;;;;5070785;28;20182;-42
2022/07/22 03:28:07;;;;;;;3.50;2.50;;;22.80;66.00;23.70;101248.00;;;;5068807;28;20189;-42
2022/07/22 03:30:33;;;;;;;2.80;2.47;;;22.80;64.80;23.70;101245.00;;;;5071010;28;20197;-41
2022/07/22 03:32:59;;;;;;;3.27;2.73;;;22.80;64.70;23.70;101253.00;;;;5071459;28;20178;-42
2022/07/22 03:35:24;;;;;;;4.67;3.20;;;22.80;64.80;23.70;101237.00;;;;5068957;28;20198;-41
2022/07/22 03:37:50;;;;;;;4.13;3.20;;;22.80;66.10;23.70;101243.00;;;;5068537;28;20269;-41
2022/07/22 03:40:16;;;;;;;3.97;2.73;;;22.80;66.10;23.70;101244.00;;;;5068955;28;20169;-41
2022/07/22 03:42:42;;;;;;;5.57;2.67;;;22.80;64.80;23.70;101234.00;;;;5069147;28;20253;-41
2022/07/22 03:45:09;;;;;;;7.57;4.50;;;22.90;64.30;23.70;101250.00;;;;5085045;28;20170;-46
2022/07/22 03:47:35;;;;;;;12.23;4.10;;;22.90;66.20;23.70;101252.00;;;;5091910;28;20818;-41
2022/07/22 03:50:01;;;;;;;13.47;4.20;;;22.80;65.60;23.70;101249.00;;;;5070801;28;20311;-41
2022/07/22 03:52:28;;;;;;;9.70;3.60;;;22.90;67.00;23.70;101246.00;;;;5068802;28;20192;-43
2022/07/22 03:54:54;;;;;;;10.23;3.63;;;22.80;65.40;23.70;101239.00;;;;5068612;28;20174;-42
2022/07/22 03:57:20;;;;;;;10.23;5.23;;;22.80;64.30;23.70;101250.00;;;;5068416;28;20227;-42
2022/07/22 03:59:46;;;;;;;10.73;3.30;;;22.80;66.20;23.70;101244.00;;;;5068849;28;20197;-42
2022/07/22 04:02:12;;;;;;;5.27;2.87;;;22.80;64.10;23.70;101236.00;;;;5069422;28;20671;-41
2022/07/22 04:04:37;;;;;;;8.20;3.73;;;22.90;64.30;23.60;101238.00;;;;5067714;28;20205;-41
2022/07/22 04:07:03;;;;;;;7.40;3.83;;;22.90;64.00;23.60;101248.00;;;;5068252;28;20170;-41
2022/07/22 04:09:29;;;;;;;7.63;3.97;;;22.90;63.90;23.60;101236.00;;;;5068192;28;20197;-41
2022/07/22 04:11:55;;;;;;;5.53;3.60;;;22.80;64.30;23.60;101244.00;;;;5079566;28;20192;-41
2022/07/22 04:14:20;;;;;;;5.93;3.53;;;22.80;64.80;23.60;101251.00;;;;5067842;28;20181;-40
2022/07/22 04:16:46;;;;;;;6.87;4.63;;;22.80;65.30;23.60;101239.00;;;;5067827;28;20173;-41
2022/07/22 04:19:12;;;;;;;6.17;3.47;;;22.80;66.00;23.60;101234.00;;;;5066284;28;20233;-41
2022/07/22 04:21:38;;;;;;;5.03;3.23;;;22.80;64.30;23.60;101238.00;;;;5068147;28;20223;-41
2022/07/22 04:24:04;;;;;;;3.40;3.10;;;22.80;64.10;23.60;101234.00;;;;5070395;28;20265;-40
2022/07/22 04:26:30;;;;;;;6.07;4.40;;;22.80;64.30;23.60;101232.00;;;;5068134;28;20190;-40
2022/07/22 04:28:55;;;;;;;6.43;4.07;;;22.90;65.80;23.60;101233.00;;;;5067821;28;20200;-41
2022/07/22 04:31:22;;;;;;;5.30;4.10;;;22.90;65.20;23.30;101232.00;;;;5067936;28;20173;-41
2022/07/22 04:33:47;;;;;;;6.30;5.43;;;22.80;65.30;23.60;101237.00;;;;5067898;28;20222;-41
2022/07/22 04:36:13;;;;;;;4.97;3.87;;;22.80;66.50;23.60;101234.00;;;;5067874;28;20177;-42
2022/07/22 04:38:39;;;;;;;5.83;4.60;;;22.80;65.30;23.60;101232.00;;;;5072843;28;20359;-41
2022/07/22 04:41:05;;;;;;;4.67;4.07;;;22.80;65.40;23.60;101232.00;;;;5070275;28;20327;-41
2022/07/22 04:43:30;;;;;;;4.40;4.00;;;22.80;64.70;23.60;101237.00;;;;5067481;28;20177;-41
2022/07/22 04:45:56;;;;;;;6.57;4.10;;;22.80;64.80;23.60;101228.00;;;;5067286;28;20788;-40
2022/07/22 04:48:22;;;;;;;5.33;4.80;;;22.80;65.20;23.60;101237.00;;;;5067223;28;20807;-40
2022/07/22 04:50:48;;;;;;;6.60;5.73;;;22.70;65.00;23.60;101243.00;;;;5067282;28;20178;-41
2022/07/22 04:53:13;;;;;;;7.10;6.50;;;22.80;65.90;23.60;101236.00;;;;5067058;28;20173;-41
2022/07/22 04:55:39;;;;;;;5.00;4.50;;;22.70;66.20;23.60;101232.00;;;;5066870;28;20272;-46
2022/07/22 04:58:05;;;;;;;5.40;4.90;;;22.80;64.30;23.60;101235.00;;;;5066888;28;20206;-41
2022/07/22 05:00:31;;;;;;;7.17;6.47;;;22.70;65.00;23.60;101243.00;;;;5067268;28;20886;-42
2022/07/22 05:02:57;;;;;;;7.47;6.43;;;22.80;66.10;23.60;101240.00;;;;5067492;28;20170;-41
2022/07/22 05:05:22;;;;;;;5.87;5.37;;;22.80;66.10;23.60;101235.00;;;;5068071;28;20197;-40
2022/07/22 05:07:48;;;;;;;6.73;6.03;;;22.80;65.60;23.60;101231.00;;;;5066779;28;20166;-40
2022/07/22 05:10:14;;;;;;;6.97;6.37;;;22.80;66.70;23.60;101243.00;;;;5067757;28;20169;-42
2022/07/22 05:12:40;;;;;;;6.40;5.80;;;22.70;66.10;23.60;101244.00;;;;5067029;28;20848;-41
2022/07/22 05:15:06;;;;;;;6.57;6.03;;;22.70;66.20;23.60;101252.00;;;;5066717;28;20177;-40
2022/07/22 05:17:32;;;;;;;5.23;4.83;;;22.60;66.50;23.60;101243.00;;;;5081047;28;20201;-40
2022/07/22 05:19:58;;;;;;;6.53;5.83;;;22.70;65.00;23.60;101250.00;;;;5087473;28;20228;-40
2022/07/22 05:22:23;;;;;;;5.73;5.23;;;22.70;64.40;23.50;101251.00;;;;5069751;28;20181;-41
2022/07/22 05:24:49;;;;;;;5.73;5.23;;;22.70;64.40;23.50;101256.00;;;;5066654;28;20182;-41
2022/07/22 05:27:15;;;;;;;5.30;4.80;;;22.70;64.70;23.50;101260.00;;;;5066500;28;20634;-42
2022/07/22 05:29:40;;;;;;;4.83;4.43;;;22.70;64.20;23.50;101258.00;;;;5065598;28;20589;-42
2022/07/22 05:32:06;;;;;;;4.83;4.43;;;22.70;64.20;23.50;101255.00;;;;5066645;28;20245;-42
2022/07/22 05:34:32;;;;;;;5.33;4.30;;;22.70;64.30;23.50;101247.00;;;;5066279;28;20181;-41
2022/07/22 05:36:58;;;;;;;4.00;3.60;;;22.70;64.00;23.50;101246.00;;;;5066705;28;20180;-42
2022/07/22 05:39:23;;;;;;;4.60;4.20;;;22.80;64.30;23.50;101251.00;;;;5066420;28;20295;-41
2022/07/22 05:41:49;;;;;;;3.80;3.50;;;22.80;64.30;23.50;101246.00;;;;5087133;28;20166;-40
2022/07/22 05:44:15;;;;;;;4.03;3.63;;;22.80;63.90;23.50;101256.00;;;;5091119;28;20165;-41
2022/07/22 05:46:41;;;;;;;5.43;3.60;;;22.80;64.90;23.50;101245.00;;;;5068957;28;20178;-42
2022/07/22 05:49:06;;;;;;;3.70;3.33;;;22.70;63.30;23.50;101252.00;;;;5066328;28;20850;-41
2022/07/22 05:51:34;;;;;;;3.80;3.50;;;22.70;63.40;23.50;101244.00;;;;5068192;28;20643;-41
2022/07/22 05:54:02;;;;;;;4.33;3.53;;;22.80;63.70;23.50;101237.00;;;;5066031;28;20170;-40
2022/07/22 05:56:28;;;;;;;4.60;3.57;;;22.70;64.50;23.50;101245.00;;;;5066449;28;20186;-41
2022/07/22 05:58:55;;;;;;;3.57;3.10;;;22.70;64.90;23.50;101235.00;;;;5066134;28;20262;-41
2022/07/22 06:01:21;;;;;;;5.60;3.47;;;22.70;64.10;23.50;101243.00;;;;5066198;28;20181;-42
2022/07/22 06:03:47;;;;;;;3.53;3.10;;;22.70;64.60;23.50;101242.00;;;;5066044;28;20170;-40
2022/07/22 06:06:12;;;;;;;5.03;3.20;;;22.70;64.10;23.50;101238.00;;;;5066109;28;20290;-41
2022/07/22 06:08:38;;;;;;;3.47;3.00;;;22.60;63.20;23.50;101233.00;;;;5065724;28;20637;-41
2022/07/22 06:11:04;;;;;;;4.20;3.30;;;22.70;63.60;23.50;101231.00;;;;5066189;28;20226;-40
2022/07/22 06:13:30;;;;;;;3.47;3.17;;;22.70;64.30;23.50;101166.00;;;;5066083;28;20272;-41
2022/07/22 06:15:55;;;;;;;3.20;2.90;;;22.70;63.80;23.50;101235.00;;;;5066114;28;20173;-41
2022/07/22 06:18:21;;;;;;;3.07;2.77;;;22.70;62.80;23.50;101239.00;;;;5066348;28;20216;-41
2022/07/22 06:20:47;;;;;;;3.83;3.03;;;22.70;63.80;23.50;101240.00;;;;5065969;28;20215;-42
2022/07/22 06:23:13;;;;;;;3.57;3.00;;;22.70;64.80;23.50;101238.00;;;;5065687;28;20172;-42
2022/07/22 06:25:39;;;;;;;3.27;2.60;;;22.70;63.60;23.50;101243.00;;;;5065339;28;20211;-40
2022/07/22 06:28:04;;;;;;;4.30;3.03;;;22.70;63.60;23.50;101237.00;;;;5065819;28;20200;-41
2022/07/22 06:30:30;;;;;;;3.73;2.83;;;22.70;64.00;23.50;101240.00;;;;5066309;28;20177;-40
2022/07/22 06:32:56;;;;;;;4.20;3.00;;;22.70;62.80;23.50;101240.00;;;;5066001;28;20162;-41
2022/07/22 06:35:24;;;;;;;3.47;2.90;;;22.70;62.70;23.50;101235.00;;;;5065404;28;20174;-41
2022/07/22 06:37:50;;;;;;;3.40;2.80;;;22.70;63.20;23.50;101248.00;;;;5065446;28;20878;-41
2022/07/22 06:40:16;;;;;;;2.90;2.70;;;22.70;63.60;23.40;101241.00;;;;5066753;28;20195;-40
2022/07/22 06:42:41;;;;;;;4.53;3.03;;;22.70;62.80;23.40;101249.00;;;;5076045;28;20173;-41
2022/07/22 06:45:08;;;;;;;3.07;2.80;;;22.70;63.80;23.40;101247.00;;;;5076686;28;20177;-40
2022/07/22 06:47:35;;;;;;;2.90;2.70;;;22.70;62.90;23.50;101235.00;;;;5071939;28;20255;-41
2022/07/22 06:50:04;;;;;;;2.93;2.70;;;22.70;62.50;23.50;101238.00;;;;5072150;28;20765;-41
2022/07/22 06:52:30;;;;;;;5.00;3.70;;;22.70;63.10;23.40;101244.00;;;;5072569;28;20192;-41
2022/07/22 06:54:56;;;;;;;4.40;3.40;;;22.60;64.90;23.40;101230.00;;;;5072005;28;20654;-41
2022/07/22 06:57:22;;;;;;;3.30;3.00;;;22.60;64.90;23.40;101218.00;;;;5072016;28;20286;-41
2022/07/22 06:59:47;;;;;;;4.03;3.47;;;22.60;63.20;23.40;101242.00;;;;5075618;28;20853;-41
2022/07/22 07:02:13;;;;;;;4.93;3.90;;;22.60;63.70;23.40;101228.00;;;;5097406;28;20650;-40
2022/07/22 07:04:39;;;;;;;4.27;3.47;;;22.60;64.50;23.40;101228.00;;;;5085531;28;20207;-42
2022/07/22 07:07:05;;;;;;;3.93;3.57;;;22.50;63.30;23.40;101231.00;;;;5072050;28;20176;-41
2022/07/22 07:09:30;;;;;;;3.93;3.47;;;22.60;63.70;23.40;101230.00;;;;5070841;28;20907;-42
2022/07/22 07:11:56;;;;;;;5.20;4.23;;;22.60;63.50;23.40;101225.00;;;;5072108;28;20181;-41
2022/07/22 07:14:22;;;;;;;4.00;3.70;;;22.60;65.20;23.40;101222.00;;;;5072211;28;20200;-41
2022/07/22 07:16:48;;;;;;;3.70;3.40;;;22.60;64.30;23.40;101221.00;;;;5064534;28;20174;-41
2022/07/22 07:19:13;;;;;;;4.10;3.70;;;22.70;63.30;23.40;101226.00;;;;5089964;28;20207;-40
2022/07/22 07:21:39;;;;;;;4.90;3.80;;;22.60;64.20;23.40;101230.00;;;;5095357;28;20169;-41
2022/07/22 07:24:05;;;;;;;5.23;4.07;;;22.60;64.50;23.40;101233.00;;;;5092788;28;20234;-41
2022/07/22 07:26:31;;;;;;;6.63;4.40;;;22.60;65.70;23.40;101232.00;;;;5091895;28;20191;-41
2022/07/22 07:28:57;;;;;;;6.40;4.23;;;22.50;64.00;23.40;101229.00;;;;5091816;28;20193;-41
2022/07/22 07:31:22;;;;;;;4.83;3.90;;;22.60;64.80;23.40;101232.00;;;;5095899;28;20161;-41
2022/07/22 07:33:48;;;;;;;5.13;4.73;;;22.60;64.90;23.40;101227.00;;;;5112961;27;20233;-41
2022/07/22 07:36:14;;;;;;;4.50;4.10;;;22.60;65.70;23.40;101219.00;;;;5097813;27;20181;-41
2022/07/22 07:38:40;;;;;;;4.57;4.10;;;22.60;64.00;23.40;101222.00;;;;5092059;28;20287;-41
2022/07/22 07:41:06;;;;;;;6.53;4.60;;;22.60;64.00;23.40;101225.00;;;;5091998;28;20176;-41
2022/07/22 07:43:31;;;;;;;5.50;5.00;;;22.60;63.70;23.40;101224.00;;;;5092088;28;20710;-41
2022/07/22 07:45:57;;;;;;;5.87;5.33;;;22.60;63.80;23.40;101233.00;;;;5092318;28;20197;-41
2022/07/22 07:48:23;;;;;;;5.57;5.07;;;22.60;63.90;23.40;101222.00;;;;5091573;28;20207;-41
2022/07/22 07:50:49;;;;;;;4.90;4.50;;;22.60;64.40;23.40;101215.00;;;;5092114;28;20259;-40
2022/07/22 07:53:16;;;;;;;7.43;6.73;;;22.60;64.00;23.40;101219.00;;;;5088878;28;20157;-40
2022/07/22 07:55:42;;;;;;;5.63;5.13;;;22.50;65.30;23.40;101219.00;;;;5087875;28;20193;-40
2022/07/22 07:58:07;;;;;;;7.37;5.80;;;22.40;64.80;23.30;101218.00;;;;5088963;28;20205;-40
2022/07/22 08:00:34;;;;;;;6.90;5.37;;;22.40;65.50;23.30;101223.00;;;;5088626;28;20169;-41
2022/07/22 08:03:01;;;;;;;5.53;5.03;;;22.40;64.00;23.30;101221.00;;;;5088628;28;20177;-40
2022/07/22 08:05:27;;;;;;;5.50;5.00;;;22.50;63.90;23.30;101217.00;;;;5089093;28;20250;-40
2022/07/22 08:07:53;;;;;;;6.00;5.40;;;22.50;63.60;23.30;101220.00;;;;5088400;28;20224;-40
2022/07/22 08:10:19;;;;;;;5.97;5.30;;;22.60;63.50;23.30;101224.00;;;;5089101;28;20538;-42
2022/07/22 08:12:45;;;;;;;5.77;5.23;;;22.50;63.30;23.30;101218.00;;;;5088575;28;20180;-40
2022/07/22 08:15:10;;;;;;;5.93;5.43;;;22.50;63.20;23.30;101228.00;;;;5088169;28;20177;-40
2022/07/22 08:17:36;;;;;;;6.20;5.60;;;22.50;63.30;23.30;101229.00;;;;5017690;28;20200;-42
2022/07/22 08:20:04;;;;;;;7.00;5.73;;;22.50;63.90;23.30;101216.00;;;;5108823;28;20281;-41
2022/07/22 08:22:29;;;;;;;5.50;5.00;;;22.50;64.80;23.30;101220.00;;;;5109080;28;20221;-41
2022/07/22 08:24:55;;;;;;;6.40;5.10;;;22.50;63.70;23.30;101216.00;;;;5108705;27;20180;-40
2022/07/22 08:27:21;;;;;;;5.43;4.87;;;22.50;63.30;23.30;101224.00;;;;5100287;28;20238;-40
2022/07/22 08:29:46;;;;;;;5.90;5.13;;;22.50;63.20;23.30;101218.00;;;;5089877;28;20220;-40
2022/07/22 08:32:12;;;;;;;5.83;5.20;;;22.50;63.20;23.30;101215.00;;;;5088339;28;20173;-40
2022/07/22 08:34:38;;;;;;;5.57;5.07;;;22.60;63.20;23.30;101211.00;;;;5087850;28;20255;-40
2022/07/22 08:37:04;;;;;;;5.50;4.93;;;22.50;63.90;23.30;101214.00;;;;5088129;28;20172;-40
2022/07/22 08:39:30;;;;;;;5.43;4.93;;;22.50;63.90;23.30;101217.00;;;;5087550;28;20205;-41
2022/07/22 08:41:56;;;;;;;5.40;5.00;;;22.50;62.90;23.30;101222.00;;;;5088098;28;20203;-41
2022/07/22 08:44:22;;;;;;;5.17;4.67;;;22.50;62.90;23.30;101223.00;;;;5088232;28;20268;-40
2022/07/22 08:46:48;;;;;;;5.07;4.67;;;22.50;63.60;23.30;101222.00;;;;5087769;28;20252;-39
2022/07/22 08:49:15;;;;;;;5.00;4.60;;;22.50;63.00;23.30;101225.00;;;;5087764;28;20196;-41
2022/07/22 08:51:41;;;;;;;4.77;4.37;;;22.50;62.90;23.30;101223.00;;;;5093696;28;20742;-40
2022/07/22 08:54:07;;;;;;;5.57;5.07;;;22.50;63.60;23.30;101231.00;;;;5090461;28;20160;-42
2022/07/22 08:56:33;;;;;;;4.87;4.47;;;22.50;64.30;23.30;101231.00;;;;5108054;28;20172;-40
2022/07/22 08:58:58;;;;;;;4.77;4.37;;;22.50;62.70;23.40;101232.00;;;;5108126;28;20850;-42
2022/07/22 09:01:24;;;;;;;4.90;4.50;;;22.50;62.70;23.30;101226.00;;;;5107384;28;20192;-41
2022/07/22 09:03:55;;;;;;;5.00;4.60;;;22.50;63.60;23.40;101233.00;;;;5108227;28;20224;-41
2022/07/22 09:06:26;;;;;;;4.43;4.10;;;22.50;63.90;23.40;101228.00;;;;5107841;28;20227;-40
2022/07/22 09:09:04;;;;;;;5.07;4.57;;;22.50;62.70;23.40;101226.00;;;;5107313;28;20577;-41
2022/07/22 09:11:30;;;;;;;4.73;4.33;;;22.50;62.50;23.40;101214.00;;;;5103089;28;20172;-41
2022/07/22 09:13:59;;;;;;;7.67;5.33;;;22.50;62.90;23.40;101224.00;;;;5086075;28;20169;-40
2022/07/22 09:16:47;;;;;;;5.43;4.33;;;22.50;64.30;23.40;101218.00;;;;5027408;28;20176;-39
2022/07/22 09:19:13;;;;;;;4.80;4.40;;;22.50;63.50;23.30;101218.00;;;;5066661;28;20208;-42
2022/07/22 09:21:43;;;;;;;6.13;4.10;;;22.50;63.20;23.40;101221.00;;;;5066659;28;20162;-42
2022/07/22 09:24:24;;;;;;;10.03;4.80;;;22.50;62.70;23.40;101230.00;;;;5066340;28;20173;-39
2022/07/22 09:26:54;;;;;;;14.27;4.63;;;22.50;63.90;23.40;101216.00;;;;5052088;28;20161;-39
2022/07/22 09:29:19;;;;;;;18.00;5.10;;;22.50;63.70;23.40;101231.00;;;;5079575;28;20848;-41
2022/07/22 09:31:51;;;;;;;14.80;4.63;;;22.50;64.30;23.30;101225.00;;;;5085466;28;20170;-40
2022/07/22 09:34:34;;;;;;;14.97;4.50;;;22.50;64.50;23.40;101229.00;;;;5081652;28;20181;-40
2022/07/22 09:37:00;;;;;;;6.77;4.40;;;22.50;64.20;23.40;101228.00;;;;5067056;28;20182;-40
2022/07/22 09:39:31;;;;;;;7.13;4.67;;;22.50;63.60;23.40;101236.00;;;;5067165;28;20712;-42
2022/07/22 09:42:02;;;;;;;6.70;4.20;;;22.50;63.90;23.40;101241.00;;;;5066358;28;20169;-42
2022/07/22 09:44:27;;;;;;;18.37;4.23;;;22.60;63.60;23.40;101239.00;;;;5065484;28;20165;-42
2022/07/22 09:46:53;;;;;;;5.83;3.97;;;22.60;63.20;23.40;101232.00;;;;5066206;28;20200;-43
2022/07/22 09:49:32;;;;;;;4.23;3.90;;;22.60;63.00;23.20;101231.00;;;;5065944;28;20242;-41
2022/07/22 09:51:58;;;;;;;6.40;4.07;;;22.60;63.00;23.50;101231.00;;;;5066350;28;20192;-41
2022/07/22 09:54:24;;;;;;;5.47;3.80;;;22.70;63.90;23.50;101225.00;;;;5064645;28;20193;-41
2022/07/22 09:56:49;;;;;;;5.67;4.07;;;22.60;62.70;23.50;101229.00;;;;5064840;28;20768;-40
2022/07/22 09:59:15;;;;;;;5.13;3.87;;;22.60;62.70;23.50;101164.00;;;;5065764;28;20193;-41
2022/07/22 10:01:41;;;;;;;7.60;3.90;;;22.60;62.50;23.50;101214.00;;;;5066320;28;20176;-41
2022/07/22 10:04:07;;;;;;;4.33;3.70;;;22.60;62.90;23.50;101222.00;;;;5065543;28;20197;-41
2022/07/22 10:06:33;;;;;;;5.97;4.20;;;22.60;63.00;23.50;101209.00;;;;5064963;28;20254;-41
2022/07/22 10:08:59;;;;;;;5.77;3.50;;;22.50;63.70;23.50;101211.00;;;;5048215;28;20197;-41
2022/07/22 10:11:25;;;;;;;5.73;3.90;;;22.60;63.60;23.50;101197.00;;;;5068933;28;20660;-42
2022/07/22 10:13:51;;;;;;;4.60;4.00;;;22.50;63.10;23.50;101212.00;;;;5085702;28;20935;-41
2022/07/22 10:16:17;;;;;;;5.23;3.90;;;22.50;63.20;23.40;101200.00;;;;5045201;28;20200;-40
2022/07/22 10:18:46;;;;;;;5.53;4.00;;;22.40;63.20;23.40;101196.00;;;;5063319;28;20870;-41
2022/07/22 10:21:11;;;;;;;5.07;3.90;;;22.40;63.00;23.40;101203.00;;;;5089101;28;20752;-41
2022/07/22 10:24:06;;;;;;;5.83;4.00;;;22.50;63.10;23.40;101190.00;;;;5107722;28;20165;-41
2022/07/22 10:26:57;;;;;;;4.50;3.83;;;22.50;63.30;23.40;101189.00;;;;5106322;28;20839;-41
2022/07/22 10:29:40;;;;;;;4.73;4.23;;;22.40;62.90;23.40;101186.00;;;;5107614;28;20214;-43
2022/07/22 10:32:21;;;;;;;4.60;4.20;;;22.40;63.00;23.40;101182.00;;;;5105411;28;20221;-40
2022/07/22 10:35:00;;;;;;;4.80;4.27;;;22.50;63.20;23.40;101186.00;;;;5107811;28;20176;-41
2022/07/22 10:37:34;;;;;;;4.93;4.40;;;22.50;62.80;23.40;101173.00;;;;5106112;28;20236;-41
2022/07/22 10:40:25;;;;;;;4.63;4.23;;;22.50;64.00;23.50;101174.00;;;;5108723;28;20208;-41
2022/07/22 10:42:57;;;;;;;5.80;4.30;;;22.50;63.40;23.50;101179.00;;;;5108147;28;20165;-41
2022/07/22 10:45:28;;;;;;;4.70;4.13;;;22.60;63.50;23.50;101181.00;;;;5106305;28;20225;-41